sensor_id;sensor_type;location;lat;lon;timestamp;temperature;humidity
42141;DHT22;27809;51.864;5.646;2023-03-29T00:01:47;5.90;99.90
42141;DHT22;27809;51.864;5.646;2023-03-29T00:04:14;6.00;99.90
42141;DHT22;27809;51.864;5.646;2023-03-29T00:06:44;5.90;99.90
42141;DHT22;27809;51.864;5.646;2023-03-29T00:09:12;5.80;99.90
42141;DHT22;27809;51.864;5.646;2023-03-29T00:11:38;5.90;99.90
42141;DHT22;27809;51.864;5.646;2023-03-29T00:14:04;5.90;99.90
42141;DHT22;27809;51.864;5.646;2023-03-29T00:16:29;6.00;99.90
42141;DHT22;27809;51.864;5.646;2023-03-29T00:18:55;6.00;99.90
42141;DHT22;27809;51.864;5.646;2023-03-29T00:21:21;5.90;99.90
42141;DHT22;27809;51.864;5.646;2023-03-29T00:23:46;5.90;99.90
42141;DHT22;27809;51.864;5.646;2023-03-29T00:26:12;5.90;99.90
42141;DHT22;27809;51.864;5.646;2023-03-29T00:28:37;5.80;99.90
42141;DHT22;27809;51.864;5.646;2023-03-29T00:31:05;5.80;99.90
42141;DHT22;27809;51.864;5.646;2023-03-29T00:33:31;5.90;99.90
42141;DHT22;27809;51.864;5.646;2023-03-29T00:35:57;5.90;99.90
42141;DHT22;27809;51.864;5.646;2023-03-29T00:38:22;5.90;99.90
42141;DHT22;27809;51.864;5.646;2023-03-29T00:40:48;5.90;99.90
42141;DHT22;27809;51.864;5.646;2023-03-29T00:43:14;5.90;99.90
42141;DHT22;27809;51.864;5.646;2023-03-29T00:45:40;6.00;99.90
42141;DHT22;27809;51.864;5.646;2023-03-29T00:48:09;6.00;99.90
42141;DHT22;27809;51.864;5.646;2023-03-29T00:50:40;6.00;99.90
42141;DHT22;27809;51.864;5.646;2023-03-29T00:56:27;6.00;99.90
42141;DHT22;27809;51.864;5.646;2023-03-29T00:58:43;6.10;99.90
42141;DHT22;27809;51.864;5.646;2023-03-29T01:01:14;6.00;99.90
42141;DHT22;27809;51.864;5.646;2023-03-29T01:03:50;6.00;99.90
42141;DHT22;27809;51.864;5.646;2023-03-29T01:06:19;6.10;99.90
42141;DHT22;27809;51.864;5.646;2023-03-29T01:08:51;6.10;99.90
42141;DHT22;27809;51.864;5.646;2023-03-29T01:11:23;6.20;99.90
42141;DHT22;27809;51.864;5.646;2023-03-29T01:16:35;6.10;99.90
42141;DHT22;27809;51.864;5.646;2023-03-29T01:19:09;6.10;99.90
42141;DHT22;27809;51.864;5.646;2023-03-29T01:27:37;6.20;99.90
42141;DHT22;27809;51.864;5.646;2023-03-29T01:30:11;6.20;99.90
42141;DHT22;27809;51.864;5.646;2023-03-29T01:32:45;6.20;99.90
42141;DHT22;27809;51.864;5.646;2023-03-29T01:35:18;6.30;99.90
42141;DHT22;27809;51.864;5.646;2023-03-29T01:37:51;6.20;99.90
42141;DHT22;27809;51.864;5.646;2023-03-29T01:40:21;6.20;99.90
42141;DHT22;27809;51.864;5.646;2023-03-29T01:42:48;6.20;99.90
42141;DHT22;27809;51.864;5.646;2023-03-29T01:45:34;6.30;99.90
42141;DHT22;27809;51.864;5.646;2023-03-29T01:48:23;6.20;99.90
42141;DHT22;27809;51.864;5.646;2023-03-29T01:50:52;6.20;99.90
42141;DHT22;27809;51.864;5.646;2023-03-29T01:53:28;6.20;99.90
42141;DHT22;27809;51.864;5.646;2023-03-29T01:56:00;6.30;99.90
42141;DHT22;27809;51.864;5.646;2023-03-29T01:58:32;6.40;99.90
42141;DHT22;27809;51.864;5.646;2023-03-29T02:01:02;6.40;99.90
42141;DHT22;27809;51.864;5.646;2023-03-29T02:03:31;6.20;99.90
42141;DHT22;27809;51.864;5.646;2023-03-29T02:05:59;6.30;99.90
42141;DHT22;27809;51.864;5.646;2023-03-29T02:08:26;6.30;99.90
42141;DHT22;27809;51.864;5.646;2023-03-29T02:10:52;6.40;99.90
42141;DHT22;27809;51.864;5.646;2023-03-29T02:13:19;6.30;99.90
42141;DHT22;27809;51.864;5.646;2023-03-29T02:15:46;6.40;99.90
42141;DHT22;27809;51.864;5.646;2023-03-29T02:18:16;6.40;99.90
42141;DHT22;27809;51.864;5.646;2023-03-29T02:20:45;6.40;99.90
42141;DHT22;27809;51.864;5.646;2023-03-29T02:23:21;6.40;99.90
42141;DHT22;27809;51.864;5.646;2023-03-29T02:25:50;6.40;99.90
42141;DHT22;27809;51.864;5.646;2023-03-29T02:28:18;6.40;99.90
42141;DHT22;27809;51.864;5.646;2023-03-29T02:30:49;6.50;99.90
42141;DHT22;27809;51.864;5.646;2023-03-29T02:33:25;6.30;99.90
42141;DHT22;27809;51.864;5.646;2023-03-29T02:35:59;6.30;99.90
42141;DHT22;27809;51.864;5.646;2023-03-29T02:38:25;6.40;99.90
42141;DHT22;27809;51.864;5.646;2023-03-29T02:40:53;6.50;99.90
42141;DHT22;27809;51.864;5.646;2023-03-29T02:43:21;6.40;99.90
42141;DHT22;27809;51.864;5.646;2023-03-29T02:45:48;6.40;99.90
42141;DHT22;27809;51.864;5.646;2023-03-29T02:48:17;6.40;99.90
42141;DHT22;27809;51.864;5.646;2023-03-29T02:50:47;6.50;99.90
42141;DHT22;27809;51.864;5.646;2023-03-29T02:53:23;6.50;99.90
42141;DHT22;27809;51.864;5.646;2023-03-29T02:55:50;6.40;99.90
42141;DHT22;27809;51.864;5.646;2023-03-29T02:58:17;6.50;99.90
42141;DHT22;27809;51.864;5.646;2023-03-29T03:00:47;6.50;99.90
42141;DHT22;27809;51.864;5.646;2023-03-29T03:03:13;6.50;99.90
42141;DHT22;27809;51.864;5.646;2023-03-29T03:05:40;6.50;99.90
42141;DHT22;27809;51.864;5.646;2023-03-29T03:08:06;6.50;99.90
42141;DHT22;27809;51.864;5.646;2023-03-29T03:10:35;6.50;99.90
42141;DHT22;27809;51.864;5.646;2023-03-29T03:13:00;6.50;99.90
42141;DHT22;27809;51.864;5.646;2023-03-29T03:15:26;6.50;99.90
42141;DHT22;27809;51.864;5.646;2023-03-29T03:17:52;6.50;99.90
42141;DHT22;27809;51.864;5.646;2023-03-29T03:20:18;6.60;99.90
42141;DHT22;27809;51.864;5.646;2023-03-29T03:22:47;6.50;99.90
42141;DHT22;27809;51.864;5.646;2023-03-29T03:25:18;6.60;99.90
42141;DHT22;27809;51.864;5.646;2023-03-29T03:27:47;6.60;99.90
42141;DHT22;27809;51.864;5.646;2023-03-29T03:30:13;6.50;99.90
42141;DHT22;27809;51.864;5.646;2023-03-29T03:32:39;6.60;99.90
42141;DHT22;27809;51.864;5.646;2023-03-29T03:35:05;6.70;99.90
42141;DHT22;27809;51.864;5.646;2023-03-29T03:37:32;6.70;99.90
42141;DHT22;27809;51.864;5.646;2023-03-29T03:39:57;6.70;99.90
42141;DHT22;27809;51.864;5.646;2023-03-29T03:42:26;6.70;99.90
42141;DHT22;27809;51.864;5.646;2023-03-29T03:44:52;6.70;99.90
42141;DHT22;27809;51.864;5.646;2023-03-29T03:47:18;6.70;99.90
42141;DHT22;27809;51.864;5.646;2023-03-29T03:49:44;6.70;99.90
42141;DHT22;27809;51.864;5.646;2023-03-29T03:52:10;6.80;99.90
42141;DHT22;27809;51.864;5.646;2023-03-29T03:54:35;6.80;99.90
42141;DHT22;27809;51.864;5.646;2023-03-29T03:57:01;6.70;99.90
42141;DHT22;27809;51.864;5.646;2023-03-29T03:59:26;6.80;99.90
42141;DHT22;27809;51.864;5.646;2023-03-29T04:01:52;6.70;99.90
42141;DHT22;27809;51.864;5.646;2023-03-29T04:04:17;6.70;99.90
42141;DHT22;27809;51.864;5.646;2023-03-29T04:06:44;6.80;99.90
42141;DHT22;27809;51.864;5.646;2023-03-29T04:09:10;6.80;99.90
42141;DHT22;27809;51.864;5.646;2023-03-29T04:11:35;6.80;99.90
42141;DHT22;27809;51.864;5.646;2023-03-29T04:14:01;6.70;99.90
42141;DHT22;27809;51.864;5.646;2023-03-29T04:16:27;6.80;99.90
42141;DHT22;27809;51.864;5.646;2023-03-29T04:18:53;6.80;99.90
42141;DHT22;27809;51.864;5.646;2023-03-29T04:21:19;6.80;99.90
42141;DHT22;27809;51.864;5.646;2023-03-29T04:23:45;6.80;99.90
42141;DHT22;27809;51.864;5.646;2023-03-29T04:26:12;6.80;99.90
42141;DHT22;27809;51.864;5.646;2023-03-29T04:28:39;6.80;99.90
42141;DHT22;27809;51.864;5.646;2023-03-29T04:31:12;6.90;99.90
42141;DHT22;27809;51.864;5.646;2023-03-29T04:33:38;6.80;99.90
42141;DHT22;27809;51.864;5.646;2023-03-29T04:36:04;6.90;99.90
42141;DHT22;27809;51.864;5.646;2023-03-29T04:38:30;6.90;99.90
42141;DHT22;27809;51.864;5.646;2023-03-29T04:40:59;6.90;99.90
42141;DHT22;27809;51.864;5.646;2023-03-29T04:43:25;6.90;99.90
42141;DHT22;27809;51.864;5.646;2023-03-29T04:45:50;7.00;99.90
42141;DHT22;27809;51.864;5.646;2023-03-29T04:48:16;6.90;99.90
42141;DHT22;27809;51.864;5.646;2023-03-29T04:50:45;6.90;99.90
42141;DHT22;27809;51.864;5.646;2023-03-29T04:53:11;6.90;99.90
42141;DHT22;27809;51.864;5.646;2023-03-29T04:55:37;7.00;99.90
42141;DHT22;27809;51.864;5.646;2023-03-29T04:58:02;7.10;99.90
42141;DHT22;27809;51.864;5.646;2023-03-29T05:00:29;7.00;99.90
42141;DHT22;27809;51.864;5.646;2023-03-29T05:02:55;6.90;99.90
42141;DHT22;27809;51.864;5.646;2023-03-29T05:05:22;6.90;99.90
42141;DHT22;27809;51.864;5.646;2023-03-29T05:07:47;6.90;99.90
42141;DHT22;27809;51.864;5.646;2023-03-29T05:10:14;6.90;99.90
42141;DHT22;27809;51.864;5.646;2023-03-29T05:12:39;6.90;99.90
42141;DHT22;27809;51.864;5.646;2023-03-29T05:15:06;6.90;99.90
42141;DHT22;27809;51.864;5.646;2023-03-29T05:17:32;6.90;99.90
42141;DHT22;27809;51.864;5.646;2023-03-29T05:19:58;6.90;99.90
42141;DHT22;27809;51.864;5.646;2023-03-29T05:22:24;6.90;99.90
42141;DHT22;27809;51.864;5.646;2023-03-29T05:24:49;6.90;99.90
42141;DHT22;27809;51.864;5.646;2023-03-29T05:27:17;6.80;99.90
42141;DHT22;27809;51.864;5.646;2023-03-29T05:29:43;6.90;99.90
42141;DHT22;27809;51.864;5.646;2023-03-29T05:32:12;6.90;99.90
42141;DHT22;27809;51.864;5.646;2023-03-29T05:34:38;7.00;99.90
42141;DHT22;27809;51.864;5.646;2023-03-29T05:37:03;7.00;99.90
42141;DHT22;27809;51.864;5.646;2023-03-29T05:39:29;7.00;99.90
42141;DHT22;27809;51.864;5.646;2023-03-29T05:41:55;7.10;99.90
42141;DHT22;27809;51.864;5.646;2023-03-29T05:44:21;7.10;99.90
42141;DHT22;27809;51.864;5.646;2023-03-29T05:46:46;7.10;99.90
42141;DHT22;27809;51.864;5.646;2023-03-29T05:49:12;7.10;99.90
42141;DHT22;27809;51.864;5.646;2023-03-29T05:51:37;7.20;99.90
42141;DHT22;27809;51.864;5.646;2023-03-29T05:54:03;7.10;99.90
42141;DHT22;27809;51.864;5.646;2023-03-29T05:56:29;7.20;99.90
42141;DHT22;27809;51.864;5.646;2023-03-29T05:58:54;7.20;99.90
42141;DHT22;27809;51.864;5.646;2023-03-29T06:01:23;7.20;99.90
42141;DHT22;27809;51.864;5.646;2023-03-29T06:03:52;7.20;99.90
42141;DHT22;27809;51.864;5.646;2023-03-29T06:06:17;7.20;99.90
42141;DHT22;27809;51.864;5.646;2023-03-29T06:08:43;7.20;99.90
42141;DHT22;27809;51.864;5.646;2023-03-29T06:11:11;7.30;99.90
42141;DHT22;27809;51.864;5.646;2023-03-29T06:13:37;7.40;99.90
42141;DHT22;27809;51.864;5.646;2023-03-29T06:16:07;7.40;99.90
42141;DHT22;27809;51.864;5.646;2023-03-29T06:18:33;7.40;99.90
42141;DHT22;27809;51.864;5.646;2023-03-29T06:20:59;7.30;99.90
42141;DHT22;27809;51.864;5.646;2023-03-29T06:23:27;7.30;99.90
42141;DHT22;27809;51.864;5.646;2023-03-29T06:25:52;7.40;99.90
42141;DHT22;27809;51.864;5.646;2023-03-29T06:28:19;7.50;99.90
42141;DHT22;27809;51.864;5.646;2023-03-29T06:30:46;7.40;99.90
42141;DHT22;27809;51.864;5.646;2023-03-29T06:33:12;7.50;99.90
42141;DHT22;27809;51.864;5.646;2023-03-29T06:35:41;7.50;99.90
42141;DHT22;27809;51.864;5.646;2023-03-29T06:38:08;7.60;99.90
42141;DHT22;27809;51.864;5.646;2023-03-29T06:40:34;7.60;99.90
42141;DHT22;27809;51.864;5.646;2023-03-29T06:43:02;7.70;99.90
42141;DHT22;27809;51.864;5.646;2023-03-29T06:45:31;7.60;99.90
42141;DHT22;27809;51.864;5.646;2023-03-29T06:47:57;7.70;99.90
42141;DHT22;27809;51.864;5.646;2023-03-29T06:50:22;7.80;99.90
42141;DHT22;27809;51.864;5.646;2023-03-29T06:52:48;7.80;99.90
42141;DHT22;27809;51.864;5.646;2023-03-29T06:55:14;7.80;99.90
42141;DHT22;27809;51.864;5.646;2023-03-29T06:57:41;7.80;99.90
42141;DHT22;27809;51.864;5.646;2023-03-29T07:00:07;7.90;99.90
42141;DHT22;27809;51.864;5.646;2023-03-29T07:02:41;8.00;99.90
42141;DHT22;27809;51.864;5.646;2023-03-29T07:05:07;8.00;99.90
42141;DHT22;27809;51.864;5.646;2023-03-29T07:07:37;8.00;99.90
42141;DHT22;27809;51.864;5.646;2023-03-29T07:10:19;8.10;99.90
42141;DHT22;27809;51.864;5.646;2023-03-29T07:12:47;8.20;99.90
42141;DHT22;27809;51.864;5.646;2023-03-29T07:15:13;8.30;99.90
42141;DHT22;27809;51.864;5.646;2023-03-29T07:17:38;8.30;99.90
42141;DHT22;27809;51.864;5.646;2023-03-29T07:20:04;8.30;99.90
42141;DHT22;27809;51.864;5.646;2023-03-29T07:22:36;8.40;99.90
42141;DHT22;27809;51.864;5.646;2023-03-29T07:25:03;8.40;99.90
42141;DHT22;27809;51.864;5.646;2023-03-29T07:27:28;8.40;99.90
42141;DHT22;27809;51.864;5.646;2023-03-29T07:29:54;8.60;99.90
42141;DHT22;27809;51.864;5.646;2023-03-29T07:32:21;8.70;99.90
42141;DHT22;27809;51.864;5.646;2023-03-29T07:34:46;8.70;99.90
42141;DHT22;27809;51.864;5.646;2023-03-29T07:37:13;8.80;99.90
42141;DHT22;27809;51.864;5.646;2023-03-29T07:39:39;8.90;99.90
42141;DHT22;27809;51.864;5.646;2023-03-29T07:42:04;8.80;99.90
42141;DHT22;27809;51.864;5.646;2023-03-29T07:44:31;9.00;99.90
42141;DHT22;27809;51.864;5.646;2023-03-29T07:46:58;9.00;99.90
42141;DHT22;27809;51.864;5.646;2023-03-29T07:49:25;9.00;99.80
42141;DHT22;27809;51.864;5.646;2023-03-29T07:51:50;9.10;99.90
42141;DHT22;27809;51.864;5.646;2023-03-29T07:54:16;9.10;99.90
42141;DHT22;27809;51.864;5.646;2023-03-29T07:56:42;9.20;99.90
42141;DHT22;27809;51.864;5.646;2023-03-29T07:59:07;9.20;98.70
42141;DHT22;27809;51.864;5.646;2023-03-29T08:01:33;9.40;99.00
42141;DHT22;27809;51.864;5.646;2023-03-29T08:03:58;9.40;99.90
42141;DHT22;27809;51.864;5.646;2023-03-29T08:06:24;12.90;83.30
42141;DHT22;27809;51.864;5.646;2023-03-29T08:08:51;13.30;13.00
42141;DHT22;27809;51.864;5.646;2023-03-29T08:11:16;10.70;72.80
42141;DHT22;27809;51.864;5.646;2023-03-29T08:13:43;10.10;87.30
42141;DHT22;27809;51.864;5.646;2023-03-29T08:16:08;9.90;93.20
42141;DHT22;27809;51.864;5.646;2023-03-29T08:18:34;10.00;94.70
42141;DHT22;27809;51.864;5.646;2023-03-29T08:20:59;10.10;94.50
42141;DHT22;27809;51.864;5.646;2023-03-29T08:23:25;10.10;92.60
42141;DHT22;27809;51.864;5.646;2023-03-29T08:25:51;10.60;99.90
42141;DHT22;27809;51.864;5.646;2023-03-29T08:28:16;12.20;70.20
42141;DHT22;27809;51.864;5.646;2023-03-29T08:30:43;12.10;47.20
42141;DHT22;27809;51.864;5.646;2023-03-29T08:33:09;11.00;73.90
42141;DHT22;27809;51.864;5.646;2023-03-29T08:35:34;10.60;84.90
42141;DHT22;27809;51.864;5.646;2023-03-29T08:37:59;10.50;90.10
42141;DHT22;27809;51.864;5.646;2023-03-29T08:40:27;10.60;93.90
42141;DHT22;27809;51.864;5.646;2023-03-29T08:48:37;10.40;95.30
42141;DHT22;27809;51.864;5.646;2023-03-29T08:51:13;10.50;98.20
42141;DHT22;27809;51.864;5.646;2023-03-29T08:54:04;10.50;99.90
42141;DHT22;27809;51.864;5.646;2023-03-29T08:56:33;10.50;99.90
42141;DHT22;27809;51.864;5.646;2023-03-29T08:59:00;10.40;99.90
42141;DHT22;27809;51.864;5.646;2023-03-29T09:01:30;10.50;99.90
42141;DHT22;27809;51.864;5.646;2023-03-29T09:04:13;10.40;99.90
42141;DHT22;27809;51.864;5.646;2023-03-29T09:06:40;11.10;98.20
42141;DHT22;27809;51.864;5.646;2023-03-29T09:09:31;11.10;99.70
42141;DHT22;27809;51.864;5.646;2023-03-29T09:14:41;10.70;99.90
42141;DHT22;27809;51.864;5.646;2023-03-29T09:20:13;10.60;99.90
42141;DHT22;27809;51.864;5.646;2023-03-29T09:25:45;11.90;99.90
42141;DHT22;27809;51.864;5.646;2023-03-29T09:28:18;16.40;16.10
42141;DHT22;27809;51.864;5.646;2023-03-29T09:31:05;17.40;4.40
42141;DHT22;27809;51.864;5.646;2023-03-29T09:33:42;19.50;1.00
42141;DHT22;27809;51.864;5.646;2023-03-29T09:36:15;19.50;1.00
42141;DHT22;27809;51.864;5.646;2023-03-29T09:38:45;19.60;1.00
42141;DHT22;27809;51.864;5.646;2023-03-29T09:41:21;18.60;1.00
42141;DHT22;27809;51.864;5.646;2023-03-29T09:43:51;19.10;1.00
42141;DHT22;27809;51.864;5.646;2023-03-29T09:46:25;19.30;1.00
42141;DHT22;27809;51.864;5.646;2023-03-29T09:48:54;19.40;1.00
42141;DHT22;27809;51.864;5.646;2023-03-29T09:51:23;18.90;1.00
42141;DHT22;27809;51.864;5.646;2023-03-29T09:53:50;18.90;1.00
42141;DHT22;27809;51.864;5.646;2023-03-29T09:56:16;19.60;1.00
42141;DHT22;27809;51.864;5.646;2023-03-29T09:58:43;19.70;1.00
42141;DHT22;27809;51.864;5.646;2023-03-29T10:01:13;19.20;1.00
42141;DHT22;27809;51.864;5.646;2023-03-29T10:03:40;19.50;1.00
42141;DHT22;27809;51.864;5.646;2023-03-29T10:06:08;19.50;1.00
42141;DHT22;27809;51.864;5.646;2023-03-29T10:11:03;19.60;1.00
42141;DHT22;27809;51.864;5.646;2023-03-29T10:13:33;18.90;1.00
42141;DHT22;27809;51.864;5.646;2023-03-29T10:16:02;19.10;1.00
42141;DHT22;27809;51.864;5.646;2023-03-29T10:18:32;19.40;1.00
42141;DHT22;27809;51.864;5.646;2023-03-29T10:21:01;18.90;1.00
42141;DHT22;27809;51.864;5.646;2023-03-29T10:23:36;16.40;1.00
42141;DHT22;27809;51.864;5.646;2023-03-29T10:26:04;13.70;30.50
42141;DHT22;27809;51.864;5.646;2023-03-29T10:28:32;14.40;43.80
42141;DHT22;27809;51.864;5.646;2023-03-29T10:31:00;14.20;23.80
42141;DHT22;27809;51.864;5.646;2023-03-29T10:33:31;13.10;49.30
42141;DHT22;27809;51.864;5.646;2023-03-29T10:35:57;12.90;62.20
42141;DHT22;27809;51.864;5.646;2023-03-29T10:38:26;12.50;71.00
42141;DHT22;27809;51.864;5.646;2023-03-29T10:40:54;12.80;83.30
42141;DHT22;27809;51.864;5.646;2023-03-29T10:43:32;12.60;82.20
42141;DHT22;27809;51.864;5.646;2023-03-29T10:46:10;12.80;85.50
42141;DHT22;27809;51.864;5.646;2023-03-29T10:48:38;12.70;81.00
42141;DHT22;27809;51.864;5.646;2023-03-29T10:51:05;12.70;88.10
42141;DHT22;27809;51.864;5.646;2023-03-29T10:53:35;12.60;89.70
42141;DHT22;27809;51.864;5.646;2023-03-29T11:01:23;12.80;84.90
42141;DHT22;27809;51.864;5.646;2023-03-29T11:06:47;13.20;90.40
42141;DHT22;27809;51.864;5.646;2023-03-29T11:23:23;12.50;93.50
42141;DHT22;27809;51.864;5.646;2023-03-29T11:26:23;12.70;95.30
42141;DHT22;27809;51.864;5.646;2023-03-29T11:28:56;12.60;93.50
42141;DHT22;27809;51.864;5.646;2023-03-29T11:34:22;12.70;93.10
42141;DHT22;27809;51.864;5.646;2023-03-29T11:37:06;12.90;94.30
42141;DHT22;27809;51.864;5.646;2023-03-29T11:42:39;13.00;82.80
42141;DHT22;27809;51.864;5.646;2023-03-29T11:45:09;12.90;94.30
42141;DHT22;27809;51.864;5.646;2023-03-29T11:47:39;12.90;93.00
42141;DHT22;27809;51.864;5.646;2023-03-29T11:50:17;13.10;92.70
42141;DHT22;27809;51.864;5.646;2023-03-29T11:52:58;13.20;86.60
42141;DHT22;27809;51.864;5.646;2023-03-29T11:55:27;13.20;92.80
42141;DHT22;27809;51.864;5.646;2023-03-29T11:58:01;13.70;90.30
42141;DHT22;27809;51.864;5.646;2023-03-29T12:00:31;13.90;69.40
42141;DHT22;27809;51.864;5.646;2023-03-29T12:06:14;12.90;94.10
42141;DHT22;27809;51.864;5.646;2023-03-29T12:08:45;12.60;96.30
42141;DHT22;27809;51.864;5.646;2023-03-29T12:14:41;13.10;96.50
42141;DHT22;27809;51.864;5.646;2023-03-29T12:17:14;13.10;95.10
42141;DHT22;27809;51.864;5.646;2023-03-29T12:19:48;12.80;98.50
42141;DHT22;27809;51.864;5.646;2023-03-29T12:22:14;12.60;96.40
42141;DHT22;27809;51.864;5.646;2023-03-29T12:24:41;12.70;99.90
42141;DHT22;27809;51.864;5.646;2023-03-29T12:36:12;12.60;99.90
42141;DHT22;27809;51.864;5.646;2023-03-29T12:38:39;12.60;99.90
42141;DHT22;27809;51.864;5.646;2023-03-29T12:41:15;12.80;99.90
42141;DHT22;27809;51.864;5.646;2023-03-29T12:43:42;12.60;99.90
42141;DHT22;27809;51.864;5.646;2023-03-29T12:46:10;12.60;99.90
42141;DHT22;27809;51.864;5.646;2023-03-29T12:48:40;12.70;99.90
42141;DHT22;27809;51.864;5.646;2023-03-29T12:51:28;12.80;99.90
42141;DHT22;27809;51.864;5.646;2023-03-29T12:54:19;12.90;99.90
42141;DHT22;27809;51.864;5.646;2023-03-29T13:02:00;13.30;99.00
42141;DHT22;27809;51.864;5.646;2023-03-29T13:04:49;13.70;93.20
42141;DHT22;27809;51.864;5.646;2023-03-29T13:09:51;13.50;93.00
42141;DHT22;27809;51.864;5.646;2023-03-29T13:12:25;14.10;92.50
42141;DHT22;27809;51.864;5.646;2023-03-29T13:14:57;14.80;67.40
42141;DHT22;27809;51.864;5.646;2023-03-29T13:17:25;14.40;72.30
42141;DHT22;27809;51.864;5.646;2023-03-29T13:22:58;14.20;73.90
42141;DHT22;27809;51.864;5.646;2023-03-29T13:28:42;14.10;78.90
42141;DHT22;27809;51.864;5.646;2023-03-29T13:31:34;14.10;77.00
42141;DHT22;27809;51.864;5.646;2023-03-29T13:34:17;13.90;78.20
42141;DHT22;27809;51.864;5.646;2023-03-29T13:37:42;13.80;83.40
42141;DHT22;27809;51.864;5.646;2023-03-29T13:40:43;13.90;87.10
42141;DHT22;27809;51.864;5.646;2023-03-29T13:48:30;16.10;23.50
42141;DHT22;27809;51.864;5.646;2023-03-29T13:51:00;15.00;49.30
42141;DHT22;27809;51.864;5.646;2023-03-29T13:53:38;14.80;59.40
42141;DHT22;27809;51.864;5.646;2023-03-29T13:56:08;14.60;60.60
42141;DHT22;27809;51.864;5.646;2023-03-29T13:58:45;14.40;66.60
42141;DHT22;27809;51.864;5.646;2023-03-29T14:03:47;14.40;62.50
42141;DHT22;27809;51.864;5.646;2023-03-29T14:06:15;14.40;63.20
42141;DHT22;27809;51.864;5.646;2023-03-29T14:08:43;15.70;50.40
42141;DHT22;27809;51.864;5.646;2023-03-29T14:11:24;18.80;2.60
42141;DHT22;27809;51.864;5.646;2023-03-29T14:13:52;19.40;1.00
42141;DHT22;27809;51.864;5.646;2023-03-29T14:16:19;16.70;13.20
42141;DHT22;27809;51.864;5.646;2023-03-29T14:18:45;15.40;33.20
42141;DHT22;27809;51.864;5.646;2023-03-29T14:21:16;15.00;44.20
42141;DHT22;27809;51.864;5.646;2023-03-29T14:23:44;15.10;41.00
42141;DHT22;27809;51.864;5.646;2023-03-29T14:26:21;15.10;43.70
42141;DHT22;27809;51.864;5.646;2023-03-29T14:28:53;15.00;41.00
42141;DHT22;27809;51.864;5.646;2023-03-29T14:31:41;14.90;47.30
42141;DHT22;27809;51.864;5.646;2023-03-29T14:34:14;16.40;28.50
42141;DHT22;27809;51.864;5.646;2023-03-29T14:36:44;19.20;2.10
42141;DHT22;27809;51.864;5.646;2023-03-29T14:39:20;20.00;1.00
42141;DHT22;27809;51.864;5.646;2023-03-29T14:41:51;19.70;1.00
42141;DHT22;27809;51.864;5.646;2023-03-29T14:44:19;17.70;1.00
42141;DHT22;27809;51.864;5.646;2023-03-29T14:46:46;16.60;15.50
42141;DHT22;27809;51.864;5.646;2023-03-29T14:49:15;15.50;29.00
42141;DHT22;27809;51.864;5.646;2023-03-29T14:51:41;15.20;35.20
42141;DHT22;27809;51.864;5.646;2023-03-29T14:54:10;15.20;37.90
42141;DHT22;27809;51.864;5.646;2023-03-29T14:56:40;15.10;41.60
42141;DHT22;27809;51.864;5.646;2023-03-29T14:59:23;15.00;46.00
42141;DHT22;27809;51.864;5.646;2023-03-29T15:01:49;16.30;27.60
42141;DHT22;27809;51.864;5.646;2023-03-29T15:04:14;19.30;1.00
42141;DHT22;27809;51.864;5.646;2023-03-29T15:06:41;19.80;1.00
42141;DHT22;27809;51.864;5.646;2023-03-29T15:09:16;20.10;1.00
42141;DHT22;27809;51.864;5.646;2023-03-29T15:11:55;17.80;1.00
42141;DHT22;27809;51.864;5.646;2023-03-29T15:14:23;15.80;20.50
42141;DHT22;27809;51.864;5.646;2023-03-29T15:16:55;15.50;30.90
42141;DHT22;27809;51.864;5.646;2023-03-29T15:19:24;15.70;31.60
42141;DHT22;27809;51.864;5.646;2023-03-29T15:21:50;15.90;30.60
42141;DHT22;27809;51.864;5.646;2023-03-29T15:24:28;15.80;28.10
42141;DHT22;27809;51.864;5.646;2023-03-29T15:27:14;16.10;27.80
42141;DHT22;27809;51.864;5.646;2023-03-29T15:29:41;15.70;23.30
42141;DHT22;27809;51.864;5.646;2023-03-29T15:32:07;15.70;27.40
42141;DHT22;27809;51.864;5.646;2023-03-29T15:34:33;15.70;27.30
42141;DHT22;27809;51.864;5.646;2023-03-29T15:37:00;15.70;28.20
42141;DHT22;27809;51.864;5.646;2023-03-29T15:39:27;15.80;32.30
42141;DHT22;27809;51.864;5.646;2023-03-29T15:41:53;15.70;40.30
42141;DHT22;27809;51.864;5.646;2023-03-29T15:44:33;17.10;18.80
42141;DHT22;27809;51.864;5.646;2023-03-29T15:47:00;16.80;17.10
42141;DHT22;27809;51.864;5.646;2023-03-29T15:49:26;16.90;17.40
42141;DHT22;27809;51.864;5.646;2023-03-29T15:51:52;16.70;17.90
42141;DHT22;27809;51.864;5.646;2023-03-29T15:54:22;16.60;24.00
42141;DHT22;27809;51.864;5.646;2023-03-29T15:56:53;17.40;9.50
42141;DHT22;27809;51.864;5.646;2023-03-29T15:59:20;15.90;23.60
42141;DHT22;27809;51.864;5.646;2023-03-29T16:01:46;15.60;29.10
42141;DHT22;27809;51.864;5.646;2023-03-29T16:04:18;15.20;36.30
42141;DHT22;27809;51.864;5.646;2023-03-29T16:06:46;15.10;41.60
42141;DHT22;27809;51.864;5.646;2023-03-29T16:09:13;15.10;41.60
42141;DHT22;27809;51.864;5.646;2023-03-29T16:11:40;14.90;38.30
42141;DHT22;27809;51.864;5.646;2023-03-29T16:14:47;14.90;39.50
42141;DHT22;27809;51.864;5.646;2023-03-29T16:17:05;14.90;43.10
42141;DHT22;27809;51.864;5.646;2023-03-29T16:19:31;14.70;46.40
42141;DHT22;27809;51.864;5.646;2023-03-29T16:21:59;14.60;46.90
42141;DHT22;27809;51.864;5.646;2023-03-29T16:24:32;14.60;54.30
42141;DHT22;27809;51.864;5.646;2023-03-29T16:26:57;14.60;52.60
42141;DHT22;27809;51.864;5.646;2023-03-29T16:29:24;14.60;57.10
42141;DHT22;27809;51.864;5.646;2023-03-29T16:31:50;14.60;55.60
42141;DHT22;27809;51.864;5.646;2023-03-29T16:34:16;14.50;60.50
42141;DHT22;27809;51.864;5.646;2023-03-29T16:36:44;14.40;63.10
42141;DHT22;27809;51.864;5.646;2023-03-29T16:39:10;14.40;67.10
42141;DHT22;27809;51.864;5.646;2023-03-29T16:41:38;14.30;65.40
42141;DHT22;27809;51.864;5.646;2023-03-29T16:44:04;14.30;70.60
42141;DHT22;27809;51.864;5.646;2023-03-29T16:46:30;14.20;77.10
42141;DHT22;27809;51.864;5.646;2023-03-29T16:48:56;14.20;83.00
42141;DHT22;27809;51.864;5.646;2023-03-29T16:51:22;14.20;83.10
42141;DHT22;27809;51.864;5.646;2023-03-29T16:53:48;14.20;90.40
42141;DHT22;27809;51.864;5.646;2023-03-29T16:56:16;14.20;90.10
42141;DHT22;27809;51.864;5.646;2023-03-29T16:58:42;14.20;86.20
42141;DHT22;27809;51.864;5.646;2023-03-29T17:01:13;14.20;91.00
42141;DHT22;27809;51.864;5.646;2023-03-29T17:03:41;14.20;92.70
42141;DHT22;27809;51.864;5.646;2023-03-29T17:06:09;14.10;93.10
42141;DHT22;27809;51.864;5.646;2023-03-29T17:08:35;14.00;93.80
42141;DHT22;27809;51.864;5.646;2023-03-29T17:11:01;14.00;92.60
42141;DHT22;27809;51.864;5.646;2023-03-29T17:13:27;14.00;94.70
42141;DHT22;27809;51.864;5.646;2023-03-29T17:15:54;13.90;97.10
42141;DHT22;27809;51.864;5.646;2023-03-29T17:18:21;13.80;99.90
42141;DHT22;27809;51.864;5.646;2023-03-29T17:20:49;13.80;99.90
42141;DHT22;27809;51.864;5.646;2023-03-29T17:23:15;13.70;99.90
42141;DHT22;27809;51.864;5.646;2023-03-29T17:25:41;13.60;99.90
42141;DHT22;27809;51.864;5.646;2023-03-29T17:28:07;13.60;99.90